sensor_id;sensor_type;location;lat;lon;timestamp;pressure;altitude;pressure_sealevel;temperature;humidity
19005;BME280;9635;52.078;8.648;2022-10-16T00:02:15;99961.09;;;13.30;79.20
19005;BME280;9635;52.078;8.648;2022-10-16T00:07:19;99957.97;;;13.34;79.09
19005;BME280;9635;52.078;8.648;2022-10-16T00:12:22;99976.56;;;13.10;80.25
19005;BME280;9635;52.078;8.648;2022-10-16T00:17:25;99972.41;;;13.15;79.74
19005;BME280;9635;52.078;8.648;2022-10-16T00:22:29;99973.53;;;13.22;79.50
19005;BME280;9635;52.078;8.648;2022-10-16T00:27:33;99971.03;;;13.39;78.69
19005;BME280;9635;52.078;8.648;2022-10-16T00:32:36;99977.69;;;13.35;78.89
19005;BME280;9635;52.078;8.648;2022-10-16T00:37:40;99967.22;;;13.32;78.66
19005;BME280;9635;52.078;8.648;2022-10-16T00:42:43;99973.44;;;13.32;78.52
19005;BME280;9635;52.078;8.648;2022-10-16T00:47:46;99962.81;;;13.31;78.60
19005;BME280;9635;52.078;8.648;2022-10-16T00:52:54;99963.13;;;13.27;78.46
19005;BME280;9635;52.078;8.648;2022-10-16T00:57:58;99973.22;;;13.25;78.64
19005;BME280;9635;52.078;8.648;2022-10-16T01:03:02;99982.16;;;13.26;78.76
19005;BME280;9635;52.078;8.648;2022-10-16T01:08:12;99972.81;;;13.20;79.35
19005;BME280;9635;52.078;8.648;2022-10-16T01:13:20;99977.19;;;13.21;79.16
19005;BME280;9635;52.078;8.648;2022-10-16T01:18:28;99992.13;;;13.16;79.29
19005;BME280;9635;52.078;8.648;2022-10-16T01:23:46;99992.53;;;13.21;79.31
19005;BME280;9635;52.078;8.648;2022-10-16T01:28:55;99996.84;;;13.14;79.73
19005;BME280;9635;52.078;8.648;2022-10-16T01:34:02;99990.16;;;13.18;79.35
19005;BME280;9635;52.078;8.648;2022-10-16T01:39:09;99993.38;;;13.21;79.21
19005;BME280;9635;52.078;8.648;2022-10-16T01:44:17;99997.00;;;13.12;79.57
19005;BME280;9635;52.078;8.648;2022-10-16T01:49:24;100006.22;;;13.10;79.74
19005;BME280;9635;52.078;8.648;2022-10-16T01:54:30;100005.81;;;13.04;79.88
19005;BME280;9635;52.078;8.648;2022-10-16T01:59:41;100012.41;;;12.92;80.41
19005;BME280;9635;52.078;8.648;2022-10-16T02:04:48;100005.88;;;12.95;79.98
19005;BME280;9635;52.078;8.648;2022-10-16T02:09:52;100001.03;;;12.98;79.82
19005;BME280;9635;52.078;8.648;2022-10-16T02:14:56;100009.22;;;12.79;80.47
19005;BME280;9635;52.078;8.648;2022-10-16T02:20:00;99990.69;;;12.94;79.79
19005;BME280;9635;52.078;8.648;2022-10-16T02:25:06;99991.31;;;12.78;80.01
19005;BME280;9635;52.078;8.648;2022-10-16T02:30:15;99999.47;;;12.58;81.73
19005;BME280;9635;52.078;8.648;2022-10-16T02:35:22;99984.31;;;12.57;81.21
19005;BME280;9635;52.078;8.648;2022-10-16T02:40:26;99993.28;;;12.48;82.05
19005;BME280;9635;52.078;8.648;2022-10-16T02:45:31;99991.28;;;12.50;81.76
19005;BME280;9635;52.078;8.648;2022-10-16T02:50:34;99991.19;;;12.32;82.87
19005;BME280;9635;52.078;8.648;2022-10-16T02:55:37;100012.31;;;12.37;82.11
19005;BME280;9635;52.078;8.648;2022-10-16T03:00:41;100005.34;;;12.54;81.53
19005;BME280;9635;52.078;8.648;2022-10-16T03:05:44;100006.88;;;12.56;81.22
19005;BME280;9635;52.078;8.648;2022-10-16T03:10:48;100012.69;;;12.52;81.46
19005;BME280;9635;52.078;8.648;2022-10-16T03:15:51;100030.13;;;12.57;81.22
19005;BME280;9635;52.078;8.648;2022-10-16T03:20:54;100019.22;;;12.49;81.60
19005;BME280;9635;52.078;8.648;2022-10-16T03:25:57;100029.13;;;12.58;81.05
19005;BME280;9635;52.078;8.648;2022-10-16T03:31:01;100030.72;;;12.51;80.89
19005;BME280;9635;52.078;8.648;2022-10-16T03:36:04;100008.28;;;12.60;80.28
19005;BME280;9635;52.078;8.648;2022-10-16T03:41:07;100017.38;;;12.50;80.96
19005;BME280;9635;52.078;8.648;2022-10-16T03:46:12;100016.94;;;12.54;80.36
19005;BME280;9635;52.078;8.648;2022-10-16T03:51:14;100026.75;;;12.36;81.31
19005;BME280;9635;52.078;8.648;2022-10-16T03:56:17;100026.34;;;12.31;81.44
19005;BME280;9635;52.078;8.648;2022-10-16T04:01:21;100036.22;;;12.50;80.40
19005;BME280;9635;52.078;8.648;2022-10-16T04:06:24;100026.41;;;12.58;80.18
19005;BME280;9635;52.078;8.648;2022-10-16T04:11:26;100029.41;;;12.65;79.42
19005;BME280;9635;52.078;8.648;2022-10-16T04:16:31;100024.53;;;12.78;79.09
19005;BME280;9635;52.078;8.648;2022-10-16T04:21:33;100014.50;;;12.61;79.82
19005;BME280;9635;52.078;8.648;2022-10-16T04:26:36;100021.69;;;12.80;79.13
19005;BME280;9635;52.078;8.648;2022-10-16T04:31:41;100039.16;;;12.66;79.81
19005;BME280;9635;52.078;8.648;2022-10-16T04:36:43;100041.00;;;12.75;79.27
19005;BME280;9635;52.078;8.648;2022-10-16T04:41:46;100052.44;;;12.87;78.63
19005;BME280;9635;52.078;8.648;2022-10-16T04:46:51;100058.94;;;12.94;78.39
19005;BME280;9635;52.078;8.648;2022-10-16T04:51:54;100060.66;;;12.95;78.33
19005;BME280;9635;52.078;8.648;2022-10-16T04:56:56;100073.66;;;13.00;77.91
19005;BME280;9635;52.078;8.648;2022-10-16T05:02:01;100061.00;;;13.10;77.62
19005;BME280;9635;52.078;8.648;2022-10-16T05:07:04;100075.09;;;12.94;78.08
19005;BME280;9635;52.078;8.648;2022-10-16T05:12:06;100073.88;;;13.16;77.47
19005;BME280;9635;52.078;8.648;2022-10-16T05:17:11;100071.59;;;13.21;76.91
19005;BME280;9635;52.078;8.648;2022-10-16T05:22:13;100083.69;;;13.17;77.03
19005;BME280;9635;52.078;8.648;2022-10-16T05:27:16;100078.03;;;13.11;77.19
19005;BME280;9635;52.078;8.648;2022-10-16T05:32:22;100095.94;;;13.02;77.31
19005;BME280;9635;52.078;8.648;2022-10-16T05:37:25;100098.56;;;12.84;77.90
19005;BME280;9635;52.078;8.648;2022-10-16T05:42:28;100082.81;;;12.89;77.58
19005;BME280;9635;52.078;8.648;2022-10-16T05:47:32;100088.03;;;12.91;77.26
19005;BME280;9635;52.078;8.648;2022-10-16T05:52:35;100103.38;;;12.90;77.20
19005;BME280;9635;52.078;8.648;2022-10-16T05:57:38;100121.28;;;12.72;77.75
19005;BME280;9635;52.078;8.648;2022-10-16T06:02:42;100132.75;;;12.83;77.18
19005;BME280;9635;52.078;8.648;2022-10-16T06:07:45;100143.09;;;12.88;76.87
19005;BME280;9635;52.078;8.648;2022-10-16T06:12:47;100140.53;;;12.96;76.37
19005;BME280;9635;52.078;8.648;2022-10-16T06:17:52;100135.41;;;12.93;76.60
19005;BME280;9635;52.078;8.648;2022-10-16T06:22:55;100146.75;;;12.97;76.02
19005;BME280;9635;52.078;8.648;2022-10-16T06:27:57;100156.53;;;13.08;75.87
19005;BME280;9635;52.078;8.648;2022-10-16T06:33:02;100157.47;;;13.26;75.25
19005;BME280;9635;52.078;8.648;2022-10-16T06:38:05;100166.53;;;13.44;73.94
19005;BME280;9635;52.078;8.648;2022-10-16T06:43:07;100167.28;;;13.64;72.98
19005;BME280;9635;52.078;8.648;2022-10-16T06:48:11;100168.72;;;13.59;73.28
19005;BME280;9635;52.078;8.648;2022-10-16T06:53:14;100175.47;;;13.73;72.67
19005;BME280;9635;52.078;8.648;2022-10-16T06:58:17;100185.13;;;13.75;72.69
19005;BME280;9635;52.078;8.648;2022-10-16T07:03:26;100196.84;;;13.66;73.29
19005;BME280;9635;52.078;8.648;2022-10-16T07:08:31;100216.69;;;13.75;73.00
19005;BME280;9635;52.078;8.648;2022-10-16T07:13:35;100214.13;;;14.01;72.20
19005;BME280;9635;52.078;8.648;2022-10-16T07:18:40;100213.50;;;14.34;70.71
19005;BME280;9635;52.078;8.648;2022-10-16T07:23:45;100226.09;;;14.44;71.08
19005;BME280;9635;52.078;8.648;2022-10-16T07:28:52;100234.53;;;14.76;69.81
19005;BME280;9635;52.078;8.648;2022-10-16T07:33:58;100242.41;;;14.88;69.05
19005;BME280;9635;52.078;8.648;2022-10-16T07:39:01;100252.38;;;14.69;70.18
19005;BME280;9635;52.078;8.648;2022-10-16T07:44:04;100255.03;;;15.05;69.21
19005;BME280;9635;52.078;8.648;2022-10-16T07:49:09;100291.47;;;14.75;69.55
19005;BME280;9635;52.078;8.648;2022-10-16T07:54:12;100281.03;;;14.98;68.68
19005;BME280;9635;52.078;8.648;2022-10-16T07:59:15;100297.25;;;14.34;70.73
19005;BME280;9635;52.078;8.648;2022-10-16T08:04:19;100286.50;;;14.52;71.40
19005;BME280;9635;52.078;8.648;2022-10-16T08:09:22;100310.50;;;14.55;70.61
19005;BME280;9635;52.078;8.648;2022-10-16T08:14:25;100297.31;;;15.42;68.43
19005;BME280;9635;52.078;8.648;2022-10-16T08:19:30;100297.94;;;15.18;68.64
19005;BME280;9635;52.078;8.648;2022-10-16T08:24:35;100305.94;;;15.27;68.76
19005;BME280;9635;52.078;8.648;2022-10-16T08:29:38;100326.44;;;15.74;66.95
19005;BME280;9635;52.078;8.648;2022-10-16T08:34:42;100328.00;;;15.51;67.45
19005;BME280;9635;52.078;8.648;2022-10-16T08:39:45;100328.78;;;15.95;66.47
19005;BME280;9635;52.078;8.648;2022-10-16T08:45:19;100339.09;;;15.65;67.47
19005;BME280;9635;52.078;8.648;2022-10-16T08:50:28;100338.19;;;16.09;66.03
19005;BME280;9635;52.078;8.648;2022-10-16T08:55:37;100342.25;;;16.39;64.88
19005;BME280;9635;52.078;8.648;2022-10-16T09:00:42;100357.91;;;15.67;67.28
19005;BME280;9635;52.078;8.648;2022-10-16T09:05:57;100343.78;;;15.37;67.08
19005;BME280;9635;52.078;8.648;2022-10-16T09:11:08;100384.66;;;15.96;65.96
19005;BME280;9635;52.078;8.648;2022-10-16T09:16:18;100362.31;;;15.94;66.55
19005;BME280;9635;52.078;8.648;2022-10-16T09:21:26;100378.88;;;16.43;64.76
19005;BME280;9635;52.078;8.648;2022-10-16T09:26:31;100380.94;;;16.49;63.58
19005;BME280;9635;52.078;8.648;2022-10-16T09:31:36;100395.63;;;15.68;65.32
19005;BME280;9635;52.078;8.648;2022-10-16T09:36:43;100389.69;;;16.35;63.19
19005;BME280;9635;52.078;8.648;2022-10-16T09:41:47;100373.22;;;16.71;62.06
19005;BME280;9635;52.078;8.648;2022-10-16T09:47:01;100389.03;;;17.00;62.11
19005;BME280;9635;52.078;8.648;2022-10-16T09:52:09;100394.16;;;17.11;60.96
19005;BME280;9635;52.078;8.648;2022-10-16T09:57:14;100391.56;;;16.85;60.35
19005;BME280;9635;52.078;8.648;2022-10-16T10:02:18;100406.25;;;17.17;59.14
19005;BME280;9635;52.078;8.648;2022-10-16T10:07:26;100405.78;;;17.62;57.91
19005;BME280;9635;52.078;8.648;2022-10-16T10:12:31;100426.31;;;18.06;56.40
19005;BME280;9635;52.078;8.648;2022-10-16T10:17:45;100422.41;;;17.76;56.87
19005;BME280;9635;52.078;8.648;2022-10-16T10:22:50;100415.44;;;17.89;56.52
19005;BME280;9635;52.078;8.648;2022-10-16T10:28:06;100428.19;;;17.89;57.00
19005;BME280;9635;52.078;8.648;2022-10-16T10:33:20;100432.25;;;17.60;57.51
19005;BME280;9635;52.078;8.648;2022-10-16T10:38:34;100429.66;;;17.18;57.07
19005;BME280;9635;52.078;8.648;2022-10-16T10:43:52;100420.03;;;17.64;55.55
19005;BME280;9635;52.078;8.648;2022-10-16T10:49:10;100420.84;;;18.22;54.10
19005;BME280;9635;52.078;8.648;2022-10-16T10:54:25;100429.91;;;17.98;53.72
19005;BME280;9635;52.078;8.648;2022-10-16T10:59:40;100427.38;;;16.54;58.08
19005;BME280;9635;52.078;8.648;2022-10-16T11:04:55;100427.78;;;19.20;52.59
19005;BME280;9635;52.078;8.648;2022-10-16T11:10:07;100429.91;;;19.33;52.12
19005;BME280;9635;52.078;8.648;2022-10-16T11:15:18;100442.25;;;19.43;52.04
19005;BME280;9635;52.078;8.648;2022-10-16T11:20:24;100439.75;;;18.71;53.35
19005;BME280;9635;52.078;8.648;2022-10-16T11:25:31;100446.00;;;17.42;55.60
19005;BME280;9635;52.078;8.648;2022-10-16T11:30:40;100449.44;;;17.02;56.37
19005;BME280;9635;52.078;8.648;2022-10-16T11:35:49;100447.06;;;18.79;51.76
19005;BME280;9635;52.078;8.648;2022-10-16T11:41:00;100454.88;;;18.74;52.28
19005;BME280;9635;52.078;8.648;2022-10-16T11:46:09;100455.31;;;17.32;54.21
19005;BME280;9635;52.078;8.648;2022-10-16T11:51:17;100445.97;;;17.34;54.33
19005;BME280;9635;52.078;8.648;2022-10-16T11:56:25;100459.94;;;18.29;53.00
19005;BME280;9635;52.078;8.648;2022-10-16T12:01:33;100459.06;;;19.47;49.62
19005;BME280;9635;52.078;8.648;2022-10-16T12:06:43;100454.22;;;19.88;49.39
19005;BME280;9635;52.078;8.648;2022-10-16T12:11:48;100456.88;;;20.79;48.17
19005;BME280;9635;52.078;8.648;2022-10-16T12:16:53;100450.81;;;19.63;48.33
19005;BME280;9635;52.078;8.648;2022-10-16T12:21:57;100462.63;;;20.17;47.22
19005;BME280;9635;52.078;8.648;2022-10-16T12:27:02;100472.19;;;20.95;46.67
19005;BME280;9635;52.078;8.648;2022-10-16T12:32:24;100481.72;;;20.54;46.96
19005;BME280;9635;52.078;8.648;2022-10-16T12:37:47;100493.16;;;18.64;51.02
19005;BME280;9635;52.078;8.648;2022-10-16T12:42:53;100487.16;;;18.05;52.98
19005;BME280;9635;52.078;8.648;2022-10-16T12:47:56;100485.25;;;18.30;52.32
19005;BME280;9635;52.078;8.648;2022-10-16T12:53:01;100487.31;;;19.54;50.36
19005;BME280;9635;52.078;8.648;2022-10-16T12:58:14;100503.69;;;19.46;49.18
19005;BME280;9635;52.078;8.648;2022-10-16T13:03:43;100492.38;;;19.65;48.81
19005;BME280;9635;52.078;8.648;2022-10-16T13:09:20;100507.78;;;21.16;44.76
19005;BME280;9635;52.078;8.648;2022-10-16T13:14:49;100507.16;;;21.72;44.30
19005;BME280;9635;52.078;8.648;2022-10-16T13:20:02;100515.41;;;21.57;43.71
19005;BME280;9635;52.078;8.648;2022-10-16T13:25:19;100503.50;;;21.65;44.22
19005;BME280;9635;52.078;8.648;2022-10-16T13:30:28;100521.81;;;22.07;44.06
19005;BME280;9635;52.078;8.648;2022-10-16T13:35:33;100517.66;;;22.68;42.57
19005;BME280;9635;52.078;8.648;2022-10-16T13:40:36;100521.50;;;20.49;46.85
19005;BME280;9635;52.078;8.648;2022-10-16T13:45:40;100526.00;;;21.45;44.96
19005;BME280;9635;52.078;8.648;2022-10-16T13:50:43;100540.94;;;21.13;45.52
19005;BME280;9635;52.078;8.648;2022-10-16T13:55:46;100535.44;;;20.84;46.26
19005;BME280;9635;52.078;8.648;2022-10-16T14:00:56;100537.72;;;21.97;44.35
19005;BME280;9635;52.078;8.648;2022-10-16T14:06:00;100534.56;;;20.53;45.99
19005;BME280;9635;52.078;8.648;2022-10-16T14:11:04;100537.22;;;20.62;46.30
19005;BME280;9635;52.078;8.648;2022-10-16T14:16:10;100552.66;;;20.69;45.76
19005;BME280;9635;52.078;8.648;2022-10-16T14:21:14;100546.19;;;20.09;46.99
19005;BME280;9635;52.078;8.648;2022-10-16T14:26:20;100551.72;;;20.24;47.44
19005;BME280;9635;52.078;8.648;2022-10-16T14:31:28;100549.75;;;21.00;46.35
19005;BME280;9635;52.078;8.648;2022-10-16T14:36:33;100546.19;;;20.85;46.16
19005;BME280;9635;52.078;8.648;2022-10-16T14:41:42;100548.44;;;20.52;46.56
19005;BME280;9635;52.078;8.648;2022-10-16T14:46:47;100547.50;;;20.89;45.76
19005;BME280;9635;52.078;8.648;2022-10-16T14:51:50;100545.16;;;20.86;45.17
19005;BME280;9635;52.078;8.648;2022-10-16T14:56:55;100551.38;;;20.80;45.71
19005;BME280;9635;52.078;8.648;2022-10-16T15:02:18;100553.78;;;20.22;47.08
19005;BME280;9635;52.078;8.648;2022-10-16T15:07:23;100557.28;;;19.85;48.12
19005;BME280;9635;52.078;8.648;2022-10-16T15:12:27;100546.94;;;20.03;47.91
19005;BME280;9635;52.078;8.648;2022-10-16T15:17:31;100546.66;;;20.74;46.40
19005;BME280;9635;52.078;8.648;2022-10-16T15:22:34;100561.66;;;21.08;46.08
19005;BME280;9635;52.078;8.648;2022-10-16T15:27:37;100556.16;;;20.78;47.81
19005;BME280;9635;52.078;8.648;2022-10-16T15:32:43;100576.06;;;20.26;47.92
19005;BME280;9635;52.078;8.648;2022-10-16T15:37:46;100578.59;;;19.58;48.77
19005;BME280;9635;52.078;8.648;2022-10-16T15:42:49;100586.59;;;19.12;50.22
19005;BME280;9635;52.078;8.648;2022-10-16T15:47:53;100575.97;;;18.78;51.80
19005;BME280;9635;52.078;8.648;2022-10-16T15:52:56;100571.22;;;18.39;53.79
19005;BME280;9635;52.078;8.648;2022-10-16T15:57:59;100574.22;;;17.87;55.66
19005;BME280;9635;52.078;8.648;2022-10-16T16:03:04;100565.22;;;17.86;56.26
19005;BME280;9635;52.078;8.648;2022-10-16T16:08:07;100560.13;;;17.83;57.01
19005;BME280;9635;52.078;8.648;2022-10-16T16:13:10;100584.72;;;17.65;57.63
19005;BME280;9635;52.078;8.648;2022-10-16T16:18:14;100595.22;;;17.60;57.34
19005;BME280;9635;52.078;8.648;2022-10-16T16:23:17;100600.97;;;17.57;57.80
19005;BME280;9635;52.078;8.648;2022-10-16T16:28:20;100596.69;;;17.46;58.87
19005;BME280;9635;52.078;8.648;2022-10-16T16:33:25;100588.50;;;17.30;58.37
19005;BME280;9635;52.078;8.648;2022-10-16T16:38:29;100610.75;;;17.34;58.37
19005;BME280;9635;52.078;8.648;2022-10-16T16:43:32;100605.81;;;17.29;58.73
19005;BME280;9635;52.078;8.648;2022-10-16T16:48:37;100618.16;;;17.23;58.95
19005;BME280;9635;52.078;8.648;2022-10-16T16:53:41;100611.56;;;17.26;59.23
19005;BME280;9635;52.078;8.648;2022-10-16T16:58:44;100610.69;;;17.17;59.40
19005;BME280;9635;52.078;8.648;2022-10-16T17:03:50;100630.13;;;17.13;59.08
19005;BME280;9635;52.078;8.648;2022-10-16T17:08:54;100626.56;;;17.12;58.80
19005;BME280;9635;52.078;8.648;2022-10-16T17:13:59;100620.06;;;17.05;58.98
19005;BME280;9635;52.078;8.648;2022-10-16T17:19:05;100623.56;;;16.97;59.17
19005;BME280;9635;52.078;8.648;2022-10-16T17:24:08;100634.09;;;16.92;59.30
19005;BME280;9635;52.078;8.648;2022-10-16T17:29:12;100641.84;;;16.87;59.31
19005;BME280;9635;52.078;8.648;2022-10-16T17:34:17;100649.31;;;16.67;60.06
19005;BME280;9635;52.078;8.648;2022-10-16T17:39:20;100663.50;;;16.61;60.32
19005;BME280;9635;52.078;8.648;2022-10-16T17:44:23;100670.28;;;16.57;59.59
19005;BME280;9635;52.078;8.648;2022-10-16T17:49:28;100677.16;;;16.51;59.75
19005;BME280;9635;52.078;8.648;2022-10-16T17:54:31;100665.94;;;16.46;59.88
19005;BME280;9635;52.078;8.648;2022-10-16T17:59:33;100641.81;;;16.25;60.96
19005;BME280;9635;52.078;8.648;2022-10-16T18:04:38;100657.22;;;16.07;61.47
19005;BME280;9635;52.078;8.648;2022-10-16T18:09:41;100677.34;;;16.04;61.83
19005;BME280;9635;52.078;8.648;2022-10-16T18:15:05;100690.44;;;16.09;61.76
19005;BME280;9635;52.078;8.648;2022-10-16T18:20:10;100696.69;;;16.09;61.37
19005;BME280;9635;52.078;8.648;2022-10-16T18:25:14;100687.28;;;16.13;60.87
19005;BME280;9635;52.078;8.648;2022-10-16T18:30:17;100704.06;;;16.17;60.90
19005;BME280;9635;52.078;8.648;2022-10-16T18:35:21;100705.09;;;16.16;61.23
19005;BME280;9635;52.078;8.648;2022-10-16T18:40:24;100714.81;;;16.09;61.72
19005;BME280;9635;52.078;8.648;2022-10-16T18:45:27;100709.16;;;16.02;61.67
19005;BME280;9635;52.078;8.648;2022-10-16T18:50:32;100711.38;;;15.89;62.42
19005;BME280;9635;52.078;8.648;2022-10-16T18:55:35;100701.59;;;15.78;62.54
19005;BME280;9635;52.078;8.648;2022-10-16T19:00:37;100694.59;;;15.58;63.52
19005;BME280;9635;52.078;8.648;2022-10-16T19:05:42;100686.38;;;15.40;64.29
19005;BME280;9635;52.078;8.648;2022-10-16T19:10:46;100696.06;;;15.42;64.13
19005;BME280;9635;52.078;8.648;2022-10-16T19:15:49;100686.38;;;15.40;64.21
19005;BME280;9635;52.078;8.648;2022-10-16T19:21:02;100687.41;;;15.39;64.28
19005;BME280;9635;52.078;8.648;2022-10-16T19:26:12;100685.84;;;15.36;64.58
19005;BME280;9635;52.078;8.648;2022-10-16T19:31:18;100681.53;;;15.34;64.81
19005;BME280;9635;52.078;8.648;2022-10-16T19:36:24;100676.56;;;15.29;65.16
19005;BME280;9635;52.078;8.648;2022-10-16T19:41:29;100682.97;;;15.28;65.02
19005;BME280;9635;52.078;8.648;2022-10-16T19:46:32;100686.25;;;15.32;65.03
19005;BME280;9635;52.078;8.648;2022-10-16T19:51:37;100695.94;;;15.24;65.28
19005;BME280;9635;52.078;8.648;2022-10-16T19:56:41;100699.91;;;15.30;65.26
19005;BME280;9635;52.078;8.648;2022-10-16T20:01:45;100703.31;;;15.32;65.20
19005;BME280;9635;52.078;8.648;2022-10-16T20:06:49;100704.78;;;15.36;65.20
19005;BME280;9635;52.078;8.648;2022-10-16T20:11:52;100694.34;;;15.32;65.03
19005;BME280;9635;52.078;8.648;2022-10-16T20:16:55;100709.88;;;15.30;65.14
19005;BME280;9635;52.078;8.648;2022-10-16T20:21:59;100710.72;;;15.30;65.05
19005;BME280;9635;52.078;8.648;2022-10-16T20:27:02;100718.72;;;15.32;65.45
19005;BME280;9635;52.078;8.648;2022-10-16T20:32:05;100736.22;;;15.27;65.47
19005;BME280;9635;52.078;8.648;2022-10-16T20:37:09;100752.63;;;15.26;65.34
19005;BME280;9635;52.078;8.648;2022-10-16T20:42:12;100763.88;;;15.21;65.48
19005;BME280;9635;52.078;8.648;2022-10-16T20:47:15;100772.59;;;15.35;65.39
19005;BME280;9635;52.078;8.648;2022-10-16T20:52:19;100778.00;;;15.25;69.88
19005;BME280;9635;52.078;8.648;2022-10-16T20:57:22;100758.50;;;14.44;76.77
19005;BME280;9635;52.078;8.648;2022-10-16T21:02:25;100742.38;;;14.13;80.93
19005;BME280;9635;52.078;8.648;2022-10-16T21:07:30;100757.50;;;13.94;83.70
19005;BME280;9635;52.078;8.648;2022-10-16T21:12:33;100753.22;;;13.82;84.34
19005;BME280;9635;52.078;8.648;2022-10-16T21:17:35;100758.63;;;13.82;86.01
19005;BME280;9635;52.078;8.648;2022-10-16T21:22:39;100766.56;;;13.84;85.93
19005;BME280;9635;52.078;8.648;2022-10-16T21:27:42;100759.75;;;13.80;86.04
19005;BME280;9635;52.078;8.648;2022-10-16T21:32:46;100751.09;;;13.86;86.83
19005;BME280;9635;52.078;8.648;2022-10-16T21:37:50;100748.41;;;13.86;86.35
19005;BME280;9635;52.078;8.648;2022-10-16T21:42:53;100755.38;;;13.98;86.78
19005;BME280;9635;52.078;8.648;2022-10-16T21:47:56;100757.69;;;14.03;87.35
19005;BME280;9635;52.078;8.648;2022-10-16T21:53:00;100752.56;;;14.00;86.82
19005;BME280;9635;52.078;8.648;2022-10-16T21:58:03;100757.69;;;14.03;87.41
19005;BME280;9635;52.078;8.648;2022-10-16T22:03:05;100747.31;;;14.08;87.54
19005;BME280;9635;52.078;8.648;2022-10-16T22:08:10;100758.13;;;14.08;87.43
19005;BME280;9635;52.078;8.648;2022-10-16T22:13:12;100745.03;;;14.03;87.19
19005;BME280;9635;52.078;8.648;2022-10-16T22:18:15;100734.78;;;13.97;86.43
19005;BME280;9635;52.078;8.648;2022-10-16T22:23:20;100728.53;;;13.97;86.86
19005;BME280;9635;52.078;8.648;2022-10-16T22:28:22;100717.13;;;13.93;86.58
19005;BME280;9635;52.078;8.648;2022-10-16T22:33:25;100720.81;;;13.82;86.86
19005;BME280;9635;52.078;8.648;2022-10-16T22:38:30;100714.53;;;13.72;86.58
19005;BME280;9635;52.078;8.648;2022-10-16T22:43:34;100720.34;;;13.67;86.66
19005;BME280;9635;52.078;8.648;2022-10-16T22:48:38;100718.03;;;13.63;86.44
19005;BME280;9635;52.078;8.648;2022-10-16T22:53:42;100724.59;;;13.60;86.71
19005;BME280;9635;52.078;8.648;2022-10-16T22:58:45;100711.75;;;13.53;86.21
19005;BME280;9635;52.078;8.648;2022-10-16T23:03:48;100719.69;;;13.54;86.93
19005;BME280;9635;52.078;8.648;2022-10-16T23:08:54;100718.59;;;13.57;86.88
19005;BME280;9635;52.078;8.648;2022-10-16T23:13:57;100712.91;;;13.60;86.56
19005;BME280;9635;52.078;8.648;2022-10-16T23:19:00;100721.00;;;13.60;86.91
19005;BME280;9635;52.078;8.648;2022-10-16T23:24:05;100718.91;;;13.63;87.29
19005;BME280;9635;52.078;8.648;2022-10-16T23:29:08;100704.41;;;13.64;86.87
19005;BME280;9635;52.078;8.648;2022-10-16T23:34:11;100711.84;;;13.72;86.99
19005;BME280;9635;52.078;8.648;2022-10-16T23:39:15;100710.25;;;13.69;86.87
19005;BME280;9635;52.078;8.648;2022-10-16T23:44:18;100705.59;;;13.71;87.15
19005;BME280;9635;52.078;8.648;2022-10-16T23:49:21;100697.72;;;13.68;87.01
19005;BME280;9635;52.078;8.648;2022-10-16T23:54:25;100704.13;;;13.67;87.46
19005;BME280;9635;52.078;8.648;2022-10-16T23:59:28;100693.88;;;13.61;87.29
